Time;durP1;ratioP1;P1;durP2;ratioP2;P2;SDS_P1;SDS_P2;PMS_P1;PMS_P2;Temp;Humidity;BMP_temperature;BMP_pressure;BME280_temperature;BME280_humidity;BME280_pressure;Samples;Min_cycle;Max_cycle;Signal;HPM_P1;HPM_P2
2023/01/22 00:02:20;;;;;;;;;;;19.40;52.20;;;;;;6301366;28;19915;-67
2023/01/22 00:05:21;;;;;;;;;;;19.40;52.30;;;;;;6301063;28;19904;-68
2023/01/22 00:08:22;;;;;;;;;;;19.40;52.20;;;;;;6319444;28;19999;-67
2023/01/22 00:11:23;;;;;;;;;;;19.40;52.30;;;;;;6318984;28;19908;-67
2023/01/22 00:14:23;;;;;;;;;;;19.30;52.10;;;;;;6319156;28;19908;-67
2023/01/22 00:17:24;;;;;;;;;;;19.40;52.30;;;;;;6318691;28;19958;-67
2023/01/22 00:20:25;;;;;;;;;;;19.30;52.20;;;;;;6319261;28;19910;-66
2023/01/22 00:23:26;;;;;;;;;;;19.30;52.20;;;;;;6300083;28;19904;-66
2023/01/22 00:26:26;;;;;;;;;;;19.40;52.30;;;;;;6318432;28;19969;-67
2023/01/22 00:29:27;;;;;;;;;;;19.30;52.20;;;;;;6318663;28;19904;-66
2023/01/22 00:32:27;;;;;;;;;;;19.30;52.20;;;;;;6319037;28;19911;-67
2023/01/22 00:35:28;;;;;;;;;;;19.40;52.30;;;;;;6318380;28;19904;-67
2023/01/22 00:38:29;;;;;;;;;;;19.40;52.30;;;;;;6318850;28;20075;-67
2023/01/22 00:41:29;;;;;;;;;;;19.30;52.20;;;;;;6318489;28;19908;-67
2023/01/22 00:44:30;;;;;;;;;;;19.30;52.20;;;;;;6318790;28;19953;-67
2023/01/22 00:47:30;;;;;;;;;;;19.30;52.20;;;;;;6318375;28;19904;-67
2023/01/22 00:50:31;;;;;;;;;;;19.30;52.20;;;;;;6318705;28;19907;-66
2023/01/22 00:53:31;;;;;;;;;;;19.30;52.20;;;;;;6318244;28;19965;-67
2023/01/22 00:56:32;;;;;;;;;;;19.30;52.20;;;;;;6299822;28;19904;-67
2023/01/22 00:59:32;;;;;;;;;;;19.40;52.30;;;;;;6318218;28;19914;-67
2023/01/22 01:03:25;;;;;;;;;;;19.30;52.20;;;;;;6318348;28;19911;-67
2023/01/22 01:05:54;;;;;;;;;;;19.30;52.20;;;;;;6317841;28;20407;-67
2023/01/22 01:08:55;;;;;;;;;;;19.30;52.20;;;;;;6318161;28;19908;-66
2023/01/22 01:11:55;;;;;;;;;;;19.30;52.20;;;;;;6318102;28;19947;-67
2023/01/22 01:14:56;;;;;;;;;;;19.30;52.20;;;;;;6317730;28;19908;-67
2023/01/22 01:17:56;;;;;;;;;;;19.30;52.30;;;;;;6300066;28;19908;-67
2023/01/22 01:20:58;;;;;;;;;;;19.30;52.20;;;;;;6317966;28;19904;-68
2023/01/22 01:23:59;;;;;;;;;;;19.30;52.20;;;;;;6318101;28;20361;-66
2023/01/22 01:26:59;;;;;;;;;;;19.30;52.20;;;;;;6317782;28;19920;-67
2023/01/22 01:30:00;;;;;;;;;;;19.30;52.20;;;;;;6317985;28;19908;-67
2023/01/22 01:33:00;;;;;;;;;;;19.30;52.20;;;;;;6299729;28;19904;-67
2023/01/22 01:36:02;;;;;;;;;;;19.30;52.30;;;;;;6321219;28;20014;-67
2023/01/22 01:39:03;;;;;;;;;;;19.30;52.20;;;;;;6304241;28;19914;-67
2023/01/22 01:42:04;;;;;;;;;;;19.30;52.20;;;;;;6304478;28;19904;-67
2023/01/22 01:45:24;;;;;;;;;;;19.30;52.30;;;;;;6322638;28;19927;-66
2023/01/22 01:48:36;;;;;;;;;;;19.30;52.20;;;;;;6322660;28;19908;-66
2023/01/22 01:51:37;;;;;;;;;;;19.30;52.30;;;;;;6322846;28;19910;-67
2023/01/22 01:54:39;;;;;;;;;;;19.30;52.30;;;;;;6304196;28;19904;-67
2023/01/22 01:57:40;;;;;;;;;;;19.30;52.20;;;;;;6322536;28;19977;-67
2023/01/22 02:00:42;;;;;;;;;;;19.30;52.20;;;;;;6322239;28;19904;-66
2023/01/22 02:03:44;;;;;;;;;;;19.30;52.20;;;;;;6322178;28;20395;-67
2023/01/22 02:06:44;;;;;;;;;;;19.30;52.20;;;;;;6322063;28;19904;-67
2023/01/22 02:09:45;;;;;;;;;;;19.30;52.20;;;;;;6322225;28;19915;-67
2023/01/22 02:12:46;;;;;;;;;;;19.30;52.20;;;;;;6322098;28;19911;-67
2023/01/22 02:15:46;;;;;;;;;;;19.30;52.10;;;;;;6321972;28;19904;-67
2023/01/22 02:18:48;;;;;;;;;;;19.30;52.20;;;;;;6321862;28;20272;-67
2023/01/22 02:21:48;;;;;;;;;;;19.30;52.20;;;;;;6321905;28;19911;-67
2023/01/22 02:24:49;;;;;;;;;;;19.30;52.20;;;;;;6321590;28;19953;-67
2023/01/22 02:27:49;;;;;;;;;;;19.30;52.20;;;;;;6303089;28;19919;-67
2023/01/22 02:30:50;;;;;;;;;;;19.30;52.20;;;;;;6321995;28;20045;-67
2023/01/22 02:33:51;;;;;;;;;;;19.30;52.20;;;;;;6303595;28;19904;-67
2023/01/22 02:36:52;;;;;;;;;;;19.30;52.10;;;;;;6321334;28;19904;-67
2023/01/22 02:39:53;;;;;;;;;;;19.30;52.20;;;;;;6321649;28;19950;-67
2023/01/22 02:42:54;;;;;;;;;;;19.30;52.10;;;;;;6321091;28;20570;-67
2023/01/22 02:45:54;;;;;;;;;;;19.30;52.10;;;;;;6319982;28;20479;-67
2023/01/22 02:48:55;;;;;;;;;;;19.30;52.20;;;;;;6320717;28;20027;-67
2023/01/22 02:51:55;;;;;;;;;;;19.30;52.10;;;;;;6321015;28;19904;-67
2023/01/22 02:54:56;;;;;;;;;;;19.30;52.20;;;;;;6302157;28;20528;-67
2023/01/22 02:57:56;;;;;;;;;;;19.30;52.20;;;;;;6320820;28;19969;-67
2023/01/22 03:01:05;;;;;;;;;;;19.30;52.20;;;;;;6321032;28;20291;-67
2023/01/22 03:04:10;;;;;;;;;;;19.30;52.20;;;;;;6302559;28;19962;-67
2023/01/22 03:07:11;;;;;;;;;;;19.30;52.20;;;;;;6302561;28;20281;-67
2023/01/22 03:10:13;;;;;;;;;;;19.30;52.20;;;;;;6302707;28;20326;-68
2023/01/22 03:23:13;;;;;;;;;;;19.30;52.10;;;;;;6295426;28;20006;-67
2023/01/22 03:26:13;;;;;;;;;;;19.30;52.20;;;;;;6309239;28;19944;-67
2023/01/22 03:29:14;;;;;;;;;;;19.30;52.30;;;;;;6320277;28;20359;-67
2023/01/22 03:32:15;;;;;;;;;;;19.30;52.20;;;;;;6320124;28;19935;-67
2023/01/22 03:35:16;;;;;;;;;;;19.30;52.30;;;;;;6320010;28;19948;-67
2023/01/22 03:38:17;;;;;;;;;;;19.30;52.30;;;;;;6319968;28;19908;-67
2023/01/22 03:41:17;;;;;;;;;;;19.30;52.30;;;;;;6319928;28;19943;-67
2023/01/22 03:44:18;;;;;;;;;;;19.30;52.30;;;;;;6319433;28;19984;-67
2023/01/22 03:47:19;;;;;;;;;;;19.30;52.30;;;;;;6319775;28;19911;-66
2023/01/22 03:50:19;;;;;;;;;;;19.30;52.30;;;;;;6319962;28;19911;-67
2023/01/22 03:53:20;;;;;;;;;;;19.30;52.30;;;;;;6301057;28;19904;-67
2023/01/22 03:56:22;;;;;;;;;;;19.30;52.30;;;;;;6319710;28;19935;-67
2023/01/22 03:59:22;;;;;;;;;;;19.30;52.30;;;;;;6317850;28;19969;-67
2023/01/22 04:02:23;;;;;;;;;;;19.30;52.30;;;;;;6301595;28;20427;-67
2023/01/22 04:05:23;;;;;;;;;;;19.30;52.30;;;;;;6319579;28;19904;-67
2023/01/22 04:08:24;;;;;;;;;;;19.30;52.30;;;;;;6319091;28;19904;-67
2023/01/22 04:11:25;;;;;;;;;;;19.30;52.30;;;;;;6319200;28;19904;-67
2023/01/22 04:14:26;;;;;;;;;;;19.30;52.20;;;;;;6319133;28;19936;-66
2023/01/22 04:17:26;;;;;;;;;;;19.30;52.30;;;;;;6318996;28;19908;-67
2023/01/22 04:20:27;;;;;;;;;;;19.30;52.30;;;;;;6319062;28;19904;-67
2023/01/22 04:23:27;;;;;;;;;;;19.30;52.40;;;;;;6319037;28;19904;-66
2023/01/22 04:26:28;;;;;;;;;;;19.30;52.20;;;;;;6318671;28;20007;-67
2023/01/22 04:29:28;;;;;;;;;;;19.30;52.30;;;;;;6317382;28;19904;-67
2023/01/22 04:32:29;;;;;;;;;;;19.30;52.30;;;;;;6318376;28;19915;-66
2023/01/22 04:35:30;;;;;;;;;;;19.30;52.30;;;;;;6318482;28;19915;-67
2023/01/22 04:38:30;;;;;;;;;;;19.30;52.30;;;;;;6318687;28;19908;-66
2023/01/22 04:41:31;;;;;;;;;;;19.30;52.30;;;;;;6318627;28;19904;-67
2023/01/22 04:44:31;;;;;;;;;;;19.30;52.30;;;;;;6319054;28;20249;-67
2023/01/22 04:47:32;;;;;;;;;;;19.30;52.20;;;;;;6318512;28;19908;-67
2023/01/22 04:50:33;;;;;;;;;;;19.30;52.30;;;;;;6318763;28;19904;-66
2023/01/22 04:53:33;;;;;;;;;;;19.30;52.30;;;;;;6318398;28;20460;-67
2023/01/22 04:56:34;;;;;;;;;;;19.30;52.30;;;;;;6318483;28;20041;-67
2023/01/22 05:03:14;;;;;;;;;;;19.30;52.30;;;;;;6318662;28;19908;-67
2023/01/22 05:06:14;;;;;;;;;;;19.30;52.30;;;;;;6292389;28;19904;-67
2023/01/22 05:09:15;;;;;;;;;;;19.30;52.30;;;;;;6292569;28;20427;-67
2023/01/22 05:12:16;;;;;;;;;;;19.30;52.30;;;;;;6307665;28;19995;-67
2023/01/22 05:15:16;;;;;;;;;;;19.30;52.30;;;;;;6299693;28;19947;-67
2023/01/22 05:18:17;;;;;;;;;;;19.30;52.30;;;;;;6318235;28;20006;-66
2023/01/22 05:21:17;;;;;;;;;;;19.30;52.30;;;;;;6317990;28;19908;-67
2023/01/22 05:24:18;;;;;;;;;;;19.30;52.30;;;;;;6299820;28;19939;-67
2023/01/22 05:27:18;;;;;;;;;;;19.30;52.20;;;;;;6317341;28;19919;-67
2023/01/22 05:30:19;;;;;;;;;;;19.30;52.30;;;;;;6318016;28;19908;-66
2023/01/22 05:33:20;;;;;;;;;;;19.30;52.30;;;;;;6299783;28;19915;-67
2023/01/22 05:36:21;;;;;;;;;;;19.30;52.30;;;;;;6317955;28;19947;-67
2023/01/22 05:39:22;;;;;;;;;;;19.30;52.30;;;;;;6317544;28;20393;-66
2023/01/22 05:42:22;;;;;;;;;;;19.30;52.30;;;;;;6317858;28;19904;-67
2023/01/22 05:45:23;;;;;;;;;;;19.30;52.30;;;;;;6317209;28;19908;-67
2023/01/22 05:48:23;;;;;;;;;;;19.30;52.30;;;;;;6317646;28;19908;-66
2023/01/22 05:51:24;;;;;;;;;;;19.30;52.40;;;;;;6317737;28;19998;-67
2023/01/22 05:54:25;;;;;;;;;;;19.30;52.40;;;;;;6317000;28;20019;-67
2023/01/22 05:57:26;;;;;;;;;;;19.30;52.30;;;;;;6317199;28;19915;-67
2023/01/22 06:00:27;;;;;;;;;;;19.30;52.30;;;;;;6317401;28;19926;-65
2023/01/22 06:03:28;;;;;;;;;;;19.30;52.30;;;;;;6294758;28;19908;-67
2023/01/22 06:06:28;;;;;;;;;;;19.30;52.30;;;;;;6292616;28;19916;-67
2023/01/22 06:09:29;;;;;;;;;;;19.30;52.30;;;;;;6292665;28;19904;-67
2023/01/22 06:12:29;;;;;;;;;;;19.30;52.30;;;;;;6308616;28;19915;-67
2023/01/22 06:15:30;;;;;;;;;;;19.30;52.30;;;;;;6317485;28;19915;-67
2023/01/22 06:18:30;;;;;;;;;;;19.30;52.30;;;;;;6317343;28;19912;-66
2023/01/22 06:21:31;;;;;;;;;;;19.30;52.30;;;;;;6318366;28;19957;-66
2023/01/22 06:24:31;;;;;;;;;;;19.30;52.20;;;;;;6321942;28;19904;-66
2023/01/22 06:27:32;;;;;;;;;;;19.30;52.30;;;;;;6321758;28;20062;-67
2023/01/22 06:30:34;;;;;;;;;;;19.30;52.30;;;;;;6321747;28;19991;-67
2023/01/22 06:33:34;;;;;;;;;;;19.30;52.20;;;;;;6321733;28;19957;-67
2023/01/22 06:36:35;;;;;;;;;;;19.30;52.30;;;;;;6303097;28;19904;-67
2023/01/22 06:39:36;;;;;;;;;;;19.30;52.30;;;;;;6321442;28;19908;-67
2023/01/22 06:42:36;;;;;;;;;;;19.30;52.30;;;;;;6321426;28;19949;-67
2023/01/22 06:45:37;;;;;;;;;;;19.30;52.20;;;;;;6321300;28;19937;-67
2023/01/22 06:48:37;;;;;;;;;;;19.30;52.30;;;;;;6321226;28;19904;-67
2023/01/22 06:51:38;;;;;;;;;;;19.30;52.30;;;;;;6321501;28;19931;-67
2023/01/22 06:54:39;;;;;;;;;;;19.30;52.20;;;;;;6321039;28;20305;-67
2023/01/22 06:57:39;;;;;;;;;;;19.30;52.30;;;;;;6320840;28;19924;-66
2023/01/22 07:00:40;;;;;;;;;;;19.30;52.30;;;;;;6320983;28;19908;-67
2023/01/22 07:03:41;;;;;;;;;;;19.30;52.30;;;;;;6320971;28;19912;-67
2023/01/22 07:06:42;;;;;;;;;;;19.30;52.30;;;;;;6320531;28;19904;-66
2023/01/22 07:09:43;;;;;;;;;;;19.30;52.30;;;;;;6320690;28;19904;-67
2023/01/22 07:12:44;;;;;;;;;;;19.30;52.30;;;;;;6320299;28;19911;-66
2023/01/22 07:15:45;;;;;;;;;;;19.30;52.30;;;;;;6320528;28;19908;-67
2023/01/22 07:18:45;;;;;;;;;;;19.30;52.30;;;;;;6320474;28;19960;-66
2023/01/22 07:21:46;;;;;;;;;;;19.30;52.30;;;;;;6320764;28;19911;-67
2023/01/22 07:24:46;;;;;;;;;;;19.30;52.20;;;;;;6336330;28;19927;-67
2023/01/22 07:27:47;;;;;;;;;;;19.30;52.30;;;;;;6326926;28;19915;-67
2023/01/22 07:30:47;;;;;;;;;;;19.30;52.20;;;;;;6302051;28;19951;-67
2023/01/22 07:33:48;;;;;;;;;;;19.30;52.30;;;;;;6319888;28;20368;-67
2023/01/22 07:36:49;;;;;;;;;;;19.30;52.20;;;;;;6319793;28;19911;-67
2023/01/22 07:39:49;;;;;;;;;;;19.30;52.30;;;;;;6320137;28;19915;-67
2023/01/22 07:42:50;;;;;;;;;;;19.30;52.20;;;;;;6319926;28;20439;-67
2023/01/22 07:45:51;;;;;;;;;;;19.30;52.30;;;;;;6320224;28;20360;-67
2023/01/22 07:48:51;;;;;;;;;;;19.30;52.40;;;;;;6319555;28;19904;-67
2023/01/22 07:51:52;;;;;;;;;;;19.30;52.30;;;;;;6301967;28;19953;-67
2023/01/22 07:54:52;;;;;;;;;;;19.30;52.30;;;;;;6319460;28;19911;-67
2023/01/22 07:57:59;;;;;;;;;;;19.30;52.30;;;;;;6301362;28;19908;-67
2023/01/22 08:01:03;;;;;;;;;;;19.30;52.30;;;;;;6319668;28;19908;-67
2023/01/22 08:04:04;;;;;;;;;;;19.30;52.30;;;;;;6319613;28;19934;-67
2023/01/22 08:07:05;;;;;;;;;;;19.30;52.30;;;;;;6300890;28;20352;-66
2023/01/22 08:10:05;;;;;;;;;;;19.30;52.40;;;;;;6301144;28;19995;-66
2023/01/22 08:13:06;;;;;;;;;;;19.30;52.30;;;;;;6301282;28;19914;-67
2023/01/22 08:16:08;;;;;;;;;;;19.30;52.30;;;;;;6319338;28;20250;-67
2023/01/22 08:19:08;;;;;;;;;;;19.30;52.30;;;;;;6319103;28;20351;-67
2023/01/22 08:22:09;;;;;;;;;;;19.30;52.30;;;;;;6319015;28;19908;-67
2023/01/22 08:25:09;;;;;;;;;;;19.30;52.30;;;;;;6318735;28;19912;-67
2023/01/22 08:28:10;;;;;;;;;;;19.30;52.30;;;;;;6318636;28;19973;-67
2023/01/22 08:31:10;;;;;;;;;;;19.30;52.30;;;;;;6300811;28;19908;-66
2023/01/22 08:34:11;;;;;;;;;;;19.30;52.30;;;;;;6318949;28;20001;-66
2023/01/22 08:37:12;;;;;;;;;;;19.30;52.30;;;;;;6318654;28;19944;-67
2023/01/22 08:40:12;;;;;;;;;;;19.30;52.30;;;;;;6300125;28;19915;-66
2023/01/22 08:43:13;;;;;;;;;;;19.30;52.30;;;;;;6318512;28;19922;-67
2023/01/22 08:46:13;;;;;;;;;;;19.30;52.30;;;;;;6299666;28;19927;-67
2023/01/22 08:49:14;;;;;;;;;;;19.30;52.30;;;;;;6318807;28;19904;-66
2023/01/22 08:52:15;;;;;;;;;;;19.30;52.20;;;;;;6300378;28;19904;-67
2023/01/22 08:55:15;;;;;;;;;;;19.30;52.20;;;;;;6300191;28;19911;-67
2023/01/22 08:58:16;;;;;;;;;;;19.30;52.40;;;;;;6299975;28;19908;-66
2023/01/22 09:01:18;;;;;;;;;;;19.30;52.30;;;;;;6318474;28;20341;-67
2023/01/22 09:04:18;;;;;;;;;;;19.30;52.20;;;;;;6318407;28;19994;-67
2023/01/22 09:07:19;;;;;;;;;;;19.30;52.20;;;;;;6300263;28;19911;-67
2023/01/22 09:10:20;;;;;;;;;;;19.30;52.30;;;;;;6299846;28;19957;-67
2023/01/22 09:13:20;;;;;;;;;;;19.30;52.30;;;;;;6318297;28;19933;-67
2023/01/22 09:16:21;;;;;;;;;;;19.30;52.20;;;;;;6299671;28;19931;-66
2023/01/22 09:19:22;;;;;;;;;;;19.30;52.20;;;;;;6318239;28;19914;-66
2023/01/22 09:22:22;;;;;;;;;;;19.30;52.30;;;;;;6318152;28;20007;-66
2023/01/22 09:25:25;;;;;;;;;;;19.30;52.30;;;;;;6318042;28;19911;-66
2023/01/22 09:28:25;;;;;;;;;;;19.30;52.30;;;;;;6317529;28;19922;-67
2023/01/22 09:31:26;;;;;;;;;;;19.30;52.30;;;;;;6299590;28;20326;-67
2023/01/22 09:34:27;;;;;;;;;;;19.30;52.20;;;;;;6317952;28;19939;-67
2023/01/22 09:37:27;;;;;;;;;;;19.30;52.20;;;;;;6317431;28;19915;-67
2023/01/22 09:40:30;;;;;;;;;;;19.30;52.30;;;;;;6299826;28;19912;-67
2023/01/22 09:43:35;;;;;;;;;;;19.30;52.20;;;;;;6317611;28;19908;-67
2023/01/22 09:46:40;;;;;;;;;;;19.30;52.30;;;;;;6318040;28;20359;-67
2023/01/22 09:49:52;;;;;;;;;;;19.30;52.30;;;;;;6299610;28;20002;-67
2023/01/22 09:52:55;;;;;;;;;;;19.30;52.20;;;;;;6317695;28;19965;-67
2023/01/22 09:55:56;;;;;;;;;;;19.30;52.40;;;;;;6319279;28;19904;-67
2023/01/22 09:58:59;;;;;;;;;;;19.30;52.30;;;;;;6323105;28;19908;-66
2023/01/22 10:02:03;;;;;;;;;;;19.30;52.30;;;;;;6322214;28;19930;-67
2023/01/22 10:05:15;;;;;;;;;;;19.30;52.30;;;;;;6322398;28;19904;-67
2023/01/22 10:08:24;;;;;;;;;;;19.30;52.30;;;;;;6321942;28;20322;-66
2023/01/22 10:11:24;;;;;;;;;;;19.30;52.30;;;;;;6321904;28;19915;-67
2023/01/22 10:14:28;;;;;;;;;;;19.20;52.10;;;;;;6322218;28;19904;-67
2023/01/22 10:17:30;;;;;;;;;;;19.30;52.30;;;;;;6322110;28;19907;-67
2023/01/22 10:20:31;;;;;;;;;;;19.20;52.20;;;;;;6321515;28;20634;-67
2023/01/22 10:23:33;;;;;;;;;;;19.30;52.20;;;;;;6303300;28;20400;-67
2023/01/22 10:26:36;;;;;;;;;;;19.30;52.20;;;;;;6322162;28;19935;-68
2023/01/22 10:29:37;;;;;;;;;;;19.30;52.20;;;;;;6321254;28;21392;-67
2023/01/22 10:32:38;;;;;;;;;;;19.30;52.20;;;;;;6322106;28;20304;-68
2023/01/22 10:35:44;;;;;;;;;;;19.30;52.20;;;;;;6321411;28;19908;-68
2023/01/22 10:38:45;;;;;;;;;;;19.30;52.30;;;;;;6303018;28;19935;-67
2023/01/22 10:41:46;;;;;;;;;;;19.30;52.30;;;;;;6303224;28;19903;-68
2023/01/22 10:44:47;;;;;;;;;;;19.30;52.30;;;;;;6321365;28;19911;-68
2023/01/22 10:47:47;;;;;;;;;;;19.30;52.30;;;;;;6302923;28;19904;-68
2023/01/22 10:51:06;;;;;;;;;;;19.30;52.20;;;;;;6321513;28;20469;-68
2023/01/22 10:54:18;;;;;;;;;;;19.20;52.20;;;;;;6320819;28;20428;-67
2023/01/22 10:57:25;;;;;;;;;;;19.30;52.20;;;;;;6321215;28;19912;-67
2023/01/22 11:00:30;;;;;;;;;;;19.30;52.20;;;;;;6320732;28;20330;-68
2023/01/22 11:03:37;;;;;;;;;;;19.20;52.10;;;;;;6321068;28;20526;-68
2023/01/22 11:06:44;;;;;;;;;;;19.30;52.20;;;;;;6320269;28;20357;-67
2023/01/22 11:09:47;;;;;;;;;;;19.20;52.10;;;;;;6320489;28;20327;-68
2023/01/22 11:12:57;;;;;;;;;;;19.30;52.20;;;;;;6320618;28;19911;-67
2023/01/22 11:16:04;;;;;;;;;;;19.30;52.20;;;;;;6320644;28;19915;-67
2023/01/22 11:19:18;;;;;;;;;;;19.30;52.40;;;;;;6320596;28;20003;-68
2023/01/22 11:22:25;;;;;;;;;;;19.30;52.10;;;;;;6320324;28;19911;-67
2023/01/22 11:25:31;;;;;;;;;;;19.30;52.00;;;;;;6317878;28;20050;-67
2023/01/22 11:28:31;;;;;;;;;;;19.40;51.90;;;;;;6320168;28;19920;-68
2023/01/22 11:31:51;;;;;;;;;;;19.40;51.80;;;;;;6320253;28;20327;-68
2023/01/22 11:35:03;;;;;;;;;;;19.40;51.90;;;;;;6302395;28;19908;-68
2023/01/22 11:38:21;;;;;;;;;;;19.40;52.00;;;;;;6320023;28;19904;-68
2023/01/22 11:41:40;;;;;;;;;;;19.40;52.20;;;;;;6319813;28;19982;-67
2023/01/22 11:44:41;;;;;;;;;;;19.40;52.10;;;;;;6319352;28;19904;-68
2023/01/22 11:48:00;;;;;;;;;;;19.40;52.30;;;;;;6319657;28;19911;-68
2023/01/22 11:51:21;;;;;;;;;;;19.40;52.40;;;;;;6320034;28;19912;-68
2023/01/22 11:54:37;;;;;;;;;;;19.40;52.40;;;;;;6305540;28;19908;-67
2023/01/22 11:57:43;;;;;;;;;;;19.30;52.50;;;;;;6318453;28;19911;-68
2023/01/22 12:00:50;;;;;;;;;;;19.30;52.50;;;;;;6305337;28;19940;-68
2023/01/22 12:03:50;;;;;;;;;;;19.40;53.00;;;;;;6320570;28;19918;-68
2023/01/22 12:06:51;;;;;;;;;;;19.40;52.60;;;;;;6294241;28;19912;-68
2023/01/22 12:10:09;;;;;;;;;;;19.30;52.60;;;;;;6293231;28;20296;-68
2023/01/22 12:13:22;;;;;;;;;;;19.30;53.30;;;;;;6312919;28;20341;-67
2023/01/22 12:16:26;;;;;;;;;;;19.30;52.60;;;;;;6317559;28;19927;-68
2023/01/22 12:19:33;;;;;;;;;;;19.30;52.60;;;;;;6317043;28;19916;-66
2023/01/22 12:22:42;;;;;;;;;;;19.30;52.60;;;;;;6291026;28;20020;-66
2023/01/22 12:25:43;;;;;;;;;;;19.30;52.70;;;;;;6314976;28;19919;-68
2023/01/22 12:28:43;;;;;;;;;;;19.30;52.60;;;;;;6298168;28;19951;-68
2023/01/22 12:32:07;;;;;;;;;;;19.30;52.60;;;;;;6323187;28;20000;-67
2023/01/22 12:35:19;;;;;;;;;;;19.30;52.60;;;;;;6309822;28;19904;-68
2023/01/22 12:38:24;;;;;;;;;;;19.30;52.60;;;;;;6314049;28;19912;-68
2023/01/22 12:41:43;;;;;;;;;;;19.30;52.60;;;;;;6337560;28;20368;-67
2023/01/22 12:45:03;;;;;;;;;;;19.30;52.60;;;;;;6299505;28;19904;-67
2023/01/22 12:48:22;;;;;;;;;;;19.30;53.30;;;;;;6308084;28;19912;-65
2023/01/22 12:51:23;;;;;;;;;;;19.30;52.60;;;;;;6340157;28;19904;-68
2023/01/22 12:54:27;;;;;;;;;;;19.30;52.60;;;;;;6328988;28;19908;-67
2023/01/22 12:57:38;;;;;;;;;;;19.40;52.70;;;;;;6312667;28;20572;-67
2023/01/22 13:00:39;;;;;;;;;;;19.30;52.60;;;;;;6324359;28;20380;-67
2023/01/22 13:03:40;;;;;;;;;;;19.30;52.60;;;;;;6304405;28;19904;-67
2023/01/22 13:06:42;;;;;;;;;;;19.30;52.60;;;;;;6318052;28;19908;-67
2023/01/22 13:09:43;;;;;;;;;;;19.30;52.60;;;;;;6342163;28;19915;-68
2023/01/22 13:12:54;;;;;;;;;;;19.30;52.60;;;;;;6333520;28;19903;-68
2023/01/22 13:15:58;;;;;;;;;;;19.30;52.60;;;;;;6323574;28;20345;-67
2023/01/22 13:18:59;;;;;;;;;;;19.30;52.60;;;;;;6339627;28;19908;-67
2023/01/22 13:22:01;;;;;;;;;;;19.30;52.60;;;;;;6341349;28;19911;-67
2023/01/22 13:25:01;;;;;;;;;;;19.30;52.60;;;;;;6330777;28;19909;-68
2023/01/22 13:28:02;;;;;;;;;;;19.30;52.60;;;;;;6316653;28;19924;-67
2023/01/22 13:31:04;;;;;;;;;;;19.30;52.70;;;;;;6317379;28;19985;-68
2023/01/22 13:34:07;;;;;;;;;;;19.30;52.70;;;;;;6331500;28;19912;-67
2023/01/22 13:37:24;;;;;;;;;;;19.30;52.70;;;;;;6334919;28;19957;-68
2023/01/22 13:40:28;;;;;;;;;;;19.30;52.70;;;;;;6295846;28;20395;-66
2023/01/22 13:43:29;;;;;;;;;;;19.30;52.60;;;;;;6321482;28;20153;-68
2023/01/22 13:46:29;;;;;;;;;;;19.30;52.60;;;;;;6347455;28;19904;-67
2023/01/22 13:49:31;;;;;;;;;;;19.30;52.60;;;;;;6328893;28;19907;-67
2023/01/22 13:52:32;;;;;;;;;;;19.30;52.60;;;;;;6342301;28;19990;-67
2023/01/22 13:55:33;;;;;;;;;;;19.30;52.70;;;;;;6327142;28;20284;-67
2023/01/22 13:58:38;;;;;;;;;;;19.30;52.70;;;;;;6320875;28;19907;-68
2023/01/22 14:01:38;;;;;;;;;;;19.30;52.70;;;;;;6301086;28;19991;-67
2023/01/22 14:04:39;;;;;;;;;;;19.30;52.70;;;;;;6345584;28;20457;-67
2023/01/22 14:07:40;;;;;;;;;;;19.30;52.70;;;;;;6338155;28;19926;-67
2023/01/22 14:10:42;;;;;;;;;;;19.30;52.70;;;;;;6344834;28;19914;-67
2023/01/22 14:13:43;;;;;;;;;;;19.30;52.60;;;;;;6328185;28;19904;-67
2023/01/22 14:16:44;;;;;;;;;;;19.30;52.70;;;;;;6346320;28;19903;-68
2023/01/22 14:19:45;;;;;;;;;;;19.30;52.70;;;;;;6346158;28;19916;-67
2023/01/22 14:22:46;;;;;;;;;;;19.30;52.70;;;;;;6329025;28;19926;-67
2023/01/22 14:25:48;;;;;;;;;;;19.30;52.70;;;;;;6337015;28;19967;-66
2023/01/22 14:28:49;;;;;;;;;;;19.30;52.60;;;;;;6331003;28;20373;-68
2023/01/22 14:31:49;;;;;;;;;;;19.30;52.60;;;;;;6345229;28;19915;-68
2023/01/22 14:34:51;;;;;;;;;;;19.30;52.60;;;;;;6332393;28;20483;-68
2023/01/22 14:37:53;;;;;;;;;;;19.30;52.60;;;;;;6327147;28;19915;-67
2023/01/22 14:40:53;;;;;;;;;;;19.30;52.60;;;;;;6337239;28;19903;-67
2023/01/22 14:43:54;;;;;;;;;;;19.30;52.60;;;;;;6322763;28;20559;-67
2023/01/22 14:46:54;;;;;;;;;;;19.30;52.60;;;;;;6345721;28;20311;-67
2023/01/22 14:49:55;;;;;;;;;;;19.30;52.70;;;;;;6322903;28;19904;-67
2023/01/22 14:52:56;;;;;;;;;;;19.30;52.70;;;;;;6320377;28;19904;-66
2023/01/22 14:55:56;;;;;;;;;;;19.30;52.60;;;;;;6302487;28;19908;-66
2023/01/22 14:58:57;;;;;;;;;;;19.30;52.60;;;;;;6319312;28;19912;-66
2023/01/22 15:01:58;;;;;;;;;;;19.30;52.70;;;;;;6319564;28;19908;-65
2023/01/22 15:04:58;;;;;;;;;;;19.30;52.70;;;;;;6329118;28;19915;-67
2023/01/22 15:08:00;;;;;;;;;;;19.30;52.60;;;;;;6315947;28;19912;-71
2023/01/22 15:11:01;;;;;;;;;;;19.30;52.70;;;;;;6333352;28;19916;-66
2023/01/22 15:14:02;;;;;;;;;;;19.30;52.70;;;;;;6313627;28;20432;-66
2023/01/22 15:17:02;;;;;;;;;;;19.30;52.70;;;;;;6313065;28;19908;-67
2023/01/22 15:20:04;;;;;;;;;;;19.30;52.70;;;;;;6297948;28;20496;-68
2023/01/22 15:23:04;;;;;;;;;;;19.30;52.60;;;;;;6326149;28;19908;-67
2023/01/22 15:26:09;;;;;;;;;;;19.30;52.70;;;;;;6342171;28;19923;-68
2023/01/22 15:29:11;;;;;;;;;;;19.30;52.70;;;;;;6344699;28;19931;-67
2023/01/22 15:32:12;;;;;;;;;;;19.30;52.70;;;;;;6326084;28;20003;-68
2023/01/22 15:35:12;;;;;;;;;;;19.30;52.70;;;;;;6344703;28;19912;-67
2023/01/22 15:38:13;;;;;;;;;;;19.30;52.70;;;;;;6319849;28;19912;-68
2023/01/22 15:41:18;;;;;;;;;;;19.30;52.70;;;;;;6337382;28;19963;-67
2023/01/22 15:44:19;;;;;;;;;;;19.30;52.70;;;;;;6344395;28;20493;-68
2023/01/22 15:47:19;;;;;;;;;;;19.40;52.80;;;;;;6344542;28;19911;-67
2023/01/22 15:50:21;;;;;;;;;;;19.30;52.60;;;;;;6325537;28;19916;-67
2023/01/22 15:53:21;;;;;;;;;;;19.30;52.70;;;;;;6318450;28;19987;-68
2023/01/22 15:56:24;;;;;;;;;;;19.30;52.70;;;;;;6341486;28;19952;-68
2023/01/22 15:59:25;;;;;;;;;;;19.30;52.70;;;;;;6329403;28;19908;-68
2023/01/22 16:02:25;;;;;;;;;;;19.30;52.70;;;;;;6326759;28;19911;-68
2023/01/22 16:05:26;;;;;;;;;;;19.30;52.70;;;;;;6322047;28;20119;-68
2023/01/22 16:08:27;;;;;;;;;;;19.30;52.80;;;;;;6318225;28;19904;-69
2023/01/22 16:11:28;;;;;;;;;;;19.30;52.70;;;;;;6327552;28;19908;-68
2023/01/22 16:14:30;;;;;;;;;;;19.30;52.70;;;;;;6318277;28;19919;-68
2023/01/22 16:17:31;;;;;;;;;;;19.30;52.80;;;;;;6321176;28;19920;-68
2023/01/22 16:20:32;;;;;;;;;;;19.30;52.70;;;;;;6321635;28;20291;-68
2023/01/22 16:23:36;;;;;;;;;;;19.30;52.80;;;;;;6316595;28;19969;-68
2023/01/22 16:26:36;;;;;;;;;;;19.30;52.80;;;;;;6312943;28;20277;-68
2023/01/22 16:29:38;;;;;;;;;;;19.30;52.80;;;;;;6337474;28;19904;-68
2023/01/22 16:32:44;;;;;;;;;;;19.30;52.80;;;;;;6321171;28;19907;-68
2023/01/22 16:35:45;;;;;;;;;;;19.30;52.70;;;;;;6342345;28;19904;-68
2023/01/22 16:38:46;;;;;;;;;;;19.30;52.80;;;;;;6324398;28;19908;-68
2023/01/22 16:41:47;;;;;;;;;;;19.30;52.70;;;;;;6319647;28;19904;-68
2023/01/22 16:44:48;;;;;;;;;;;19.30;52.80;;;;;;6317267;28;19961;-68
2023/01/22 16:47:48;;;;;;;;;;;19.30;52.70;;;;;;6320192;28;19912;-68
2023/01/22 16:50:49;;;;;;;;;;;19.30;52.70;;;;;;6324243;28;19910;-68
2023/01/22 16:53:50;;;;;;;;;;;19.30;52.70;;;;;;6339616;28;20109;-68
2023/01/22 16:56:50;;;;;;;;;;;19.30;52.80;;;;;;6317123;28;19907;-68
2023/01/22 16:59:51;;;;;;;;;;;19.30;52.70;;;;;;6316649;28;19908;-68
2023/01/22 17:02:51;;;;;;;;;;;19.30;52.70;;;;;;6325544;28;19907;-68
2023/01/22 17:05:52;;;;;;;;;;;19.30;52.70;;;;;;6321779;28;19957;-68
2023/01/22 17:08:52;;;;;;;;;;;19.30;52.80;;;;;;6327136;28;19954;-68
2023/01/22 17:11:54;;;;;;;;;;;19.30;52.80;;;;;;6316380;28;19911;-68
2023/01/22 17:14:55;;;;;;;;;;;19.30;52.80;;;;;;6319109;28;19904;-68
2023/01/22 17:17:56;;;;;;;;;;;19.30;52.80;;;;;;6304916;28;20001;-69
2023/01/22 17:21:00;;;;;;;;;;;19.30;52.70;;;;;;6297277;28;19911;-69
2023/01/22 17:24:00;;;;;;;;;;;19.30;52.70;;;;;;6297967;28;20000;-70
2023/01/22 17:27:01;;;;;;;;;;;19.30;52.80;;;;;;6326931;28;19915;-69
2023/01/22 17:30:04;;;;;;;;;;;19.30;52.80;;;;;;6341527;28;20286;-70
2023/01/22 17:33:06;;;;;;;;;;;19.30;52.70;;;;;;6339891;28;19904;-68
2023/01/22 17:36:08;;;;;;;;;;;19.30;52.80;;;;;;6336878;28;19988;-70
2023/01/22 17:39:14;;;;;;;;;;;19.30;52.80;;;;;;6298347;28;19912;-70
2023/01/22 17:42:15;;;;;;;;;;;19.30;52.80;;;;;;6315728;28;19950;-69
2023/01/22 17:45:15;;;;;;;;;;;19.30;52.80;;;;;;6314922;28;19904;-70
2023/01/22 17:48:16;;;;;;;;;;;19.30;52.80;;;;;;6315984;28;19911;-69
2023/01/22 17:51:18;;;;;;;;;;;19.30;52.80;;;;;;6315429;28;19904;-69
2023/01/22 17:54:19;;;;;;;;;;;19.30;52.80;;;;;;6315906;28;19998;-68